createdAt,value
2022-09-29T00:00:23.970Z,1028.30
2022-09-29T00:01:23.999Z,1028.53
2022-09-29T00:02:23.951Z,1028.59
2022-09-29T00:03:23.971Z,1028.97
2022-09-29T00:04:23.927Z,1029.23
2022-09-29T00:05:23.909Z,1029.60
2022-09-29T00:06:23.909Z,1029.66
2022-09-29T00:07:23.927Z,1029.56
2022-09-29T00:08:23.893Z,1029.70
2022-09-29T00:09:23.859Z,1029.80
2022-09-29T00:10:23.896Z,1029.98
2022-09-29T00:11:23.857Z,1030.11
2022-09-29T00:12:23.839Z,1030.17
2022-09-29T00:13:23.818Z,1030.28
2022-09-29T00:14:23.820Z,1030.25
2022-09-29T00:15:23.799Z,1030.25
2022-09-29T00:16:23.901Z,1030.43
2022-09-29T00:17:23.781Z,1030.45
2022-09-29T00:18:23.772Z,1030.46
2022-09-29T00:19:23.760Z,1030.42
2022-09-29T00:20:23.748Z,1030.33
2022-09-29T00:21:23.764Z,1030.17
2022-09-29T00:22:23.721Z,1030.38
2022-09-29T00:23:23.701Z,1030.43
2022-09-29T00:24:23.709Z,1030.49
2022-09-29T00:25:23.694Z,1030.48
2022-09-29T00:26:23.693Z,1030.59
2022-09-29T00:27:23.672Z,1030.61
2022-09-29T00:28:23.661Z,1030.69
2022-09-29T00:29:23.641Z,1030.75
2022-09-29T00:30:23.639Z,1030.62
2022-09-29T00:31:23.678Z,1030.57
2022-09-29T00:32:23.611Z,1030.65
2022-09-29T00:33:23.600Z,1030.75
2022-09-29T00:34:23.601Z,1030.84
2022-09-29T00:35:23.582Z,1030.83
2022-09-29T00:36:23.573Z,1030.91
2022-09-29T00:37:23.551Z,1030.95
2022-09-29T00:38:23.543Z,1030.91
2022-09-29T00:39:23.535Z,1031.08
2022-09-29T00:40:23.537Z,1031.13
2022-09-29T00:41:23.532Z,1031.39
2022-09-29T00:42:23.502Z,1031.61
2022-09-29T00:43:23.491Z,1031.66
2022-09-29T00:44:23.473Z,1031.70
2022-09-29T00:45:23.519Z,1031.62
2022-09-29T00:46:23.634Z,1031.39
2022-09-29T00:47:23.434Z,1031.28
2022-09-29T00:48:23.444Z,1031.18
2022-09-29T00:49:23.424Z,1031.13
2022-09-29T00:50:23.403Z,1031.19
2022-09-29T00:51:23.683Z,1031.26
2022-09-29T00:52:23.393Z,1031.36
2022-09-29T00:53:23.373Z,1031.51
2022-09-29T00:54:23.354Z,1031.44
2022-09-29T00:55:23.364Z,1031.43
2022-09-29T00:56:23.355Z,1031.48
2022-09-29T00:57:23.324Z,1031.61
2022-09-29T00:58:23.336Z,1031.25
2022-09-29T00:59:23.314Z,1031.51
2022-09-29T01:00:23.295Z,1031.75
2022-09-29T01:01:23.426Z,1031.99
2022-09-29T01:02:23.320Z,1032.19
2022-09-29T01:03:23.255Z,1032.31
2022-09-29T01:04:23.254Z,1032.54
2022-09-29T01:05:23.244Z,1032.54
2022-09-29T01:06:23.244Z,1032.37
2022-09-29T01:07:23.208Z,1032.31
2022-09-29T01:08:23.204Z,1032.51
2022-09-29T01:09:23.185Z,1032.49
2022-09-29T01:10:23.182Z,1032.30
2022-09-29T01:11:23.184Z,1032.34
2022-09-29T01:12:23.166Z,1031.66
2022-09-29T01:13:23.170Z,1031.89
2022-09-29T01:14:23.140Z,1032.22
2022-09-29T01:15:23.127Z,1032.24
2022-09-29T01:16:23.212Z,1032.36
2022-09-29T01:17:23.098Z,1032.48
2022-09-29T01:18:23.094Z,1032.45
2022-09-29T01:19:23.087Z,1032.59
2022-09-29T01:20:23.081Z,1032.72
2022-09-29T01:21:23.063Z,1032.65
2022-09-29T01:22:23.066Z,1032.74
2022-09-29T01:23:23.056Z,1032.66
2022-09-29T01:24:23.026Z,1032.87
2022-09-29T01:25:23.007Z,1032.57
2022-09-29T01:26:23.046Z,1032.73
2022-09-29T01:27:23.004Z,1032.76
2022-09-29T01:28:22.975Z,1032.93
2022-09-29T01:29:22.976Z,1032.64
2022-09-29T01:30:22.974Z,1031.98
2022-09-29T01:31:22.979Z,1031.91
2022-09-29T01:32:22.946Z,1032.37
2022-09-29T01:33:22.938Z,1032.74
2022-09-29T01:34:22.906Z,1032.94
2022-09-29T01:35:22.897Z,1032.92
2022-09-29T01:36:22.894Z,1033.10
2022-09-29T01:37:22.908Z,1033.16
2022-09-29T01:38:22.857Z,1033.18
2022-09-29T01:39:22.859Z,1033.28
2022-09-29T01:40:22.905Z,1033.22
2022-09-29T01:41:22.828Z,1033.20
2022-09-29T01:42:22.830Z,1032.94
2022-09-29T01:43:22.819Z,1033.06
2022-09-29T01:44:22.805Z,1032.91
2022-09-29T01:45:22.789Z,1032.94
2022-09-29T01:46:22.787Z,1032.86
2022-09-29T01:47:22.798Z,1032.96
2022-09-29T01:48:22.749Z,1032.93
2022-09-29T01:49:22.741Z,1033.03
2022-09-29T01:50:22.739Z,1032.95
2022-09-29T01:51:22.729Z,1032.73
2022-09-29T01:52:22.743Z,1032.84
2022-09-29T01:53:22.706Z,1032.56
2022-09-29T01:54:22.689Z,1032.24
2022-09-29T01:55:22.687Z,1032.61
2022-09-29T01:56:22.652Z,1032.79
2022-09-29T01:57:22.679Z,1032.95
2022-09-29T01:58:22.640Z,1033.02
2022-09-29T01:59:22.631Z,1032.94
2022-09-29T02:00:22.621Z,1032.98
2022-09-29T02:01:22.657Z,1032.73
2022-09-29T02:02:22.674Z,1032.60
2022-09-29T02:03:22.581Z,1032.53
2022-09-29T02:04:22.583Z,1032.37
2022-09-29T02:05:22.560Z,1032.93
2022-09-29T02:06:22.550Z,1033.06
2022-09-29T02:07:22.551Z,1033.05
2022-09-29T02:08:22.530Z,1033.05
2022-09-29T02:09:22.519Z,1033.14
2022-09-29T02:10:22.527Z,1033.19
2022-09-29T02:11:22.526Z,1033.11
2022-09-29T02:12:22.490Z,1033.04
2022-09-29T02:13:22.461Z,1032.93
2022-09-29T02:14:22.739Z,1032.79
2022-09-29T02:15:22.452Z,1032.69
2022-09-29T02:16:22.471Z,1032.65
2022-09-29T02:17:22.468Z,1032.91
2022-09-29T02:18:22.430Z,1033.59
2022-09-29T02:19:22.411Z,1034.12
2022-09-29T02:20:22.396Z,1034.22
2022-09-29T02:21:22.391Z,1034.36
2022-09-29T02:22:22.382Z,1034.29
2022-09-29T02:23:22.352Z,1034.21
2022-09-29T02:24:22.353Z,1034.09
2022-09-29T02:25:22.343Z,1034.01
2022-09-29T02:26:22.333Z,1033.89
2022-09-29T02:27:24.993Z,1033.58
2022-09-29T02:28:22.312Z,1033.97
2022-09-29T02:29:22.282Z,1034.33
2022-09-29T02:30:22.283Z,1034.39
2022-09-29T02:31:22.347Z,1034.33
2022-09-29T02:32:22.266Z,1034.39
2022-09-29T02:33:22.242Z,1034.41
2022-09-29T02:34:22.242Z,1034.69
2022-09-29T02:35:22.244Z,1034.86
2022-09-29T02:36:22.222Z,1034.95
2022-09-29T02:37:22.203Z,1035.03
2022-09-29T02:38:22.193Z,1035.07
2022-09-29T02:39:22.183Z,1035.28
2022-09-29T02:40:22.224Z,1035.22
2022-09-29T02:41:22.191Z,1035.29
2022-09-29T02:42:22.154Z,1035.32
2022-09-29T02:43:22.143Z,1035.32
2022-09-29T02:44:22.121Z,1035.29
2022-09-29T02:45:22.192Z,1035.17
2022-09-29T02:46:22.118Z,1035.15
2022-09-29T02:47:22.091Z,1035.31
2022-09-29T02:48:22.077Z,1035.39
2022-09-29T02:49:22.083Z,1035.40
2022-09-29T02:50:22.054Z,1035.42
2022-09-29T02:51:22.062Z,1035.40
2022-09-29T02:52:22.034Z,1035.42
2022-09-29T02:53:22.025Z,1035.41
2022-09-29T02:54:22.006Z,1035.42
2022-09-29T02:55:22.013Z,1035.46
2022-09-29T02:56:22.012Z,1035.41
2022-09-29T02:57:21.985Z,1035.34
2022-09-29T02:58:22.227Z,1035.37
2022-09-29T02:59:21.965Z,1035.46
2022-09-29T03:00:21.944Z,1035.43
2022-09-29T03:01:22.038Z,1035.34
2022-09-29T03:02:21.924Z,1035.44
2022-09-29T03:03:21.990Z,1035.44
2022-09-29T03:04:21.895Z,1035.45
2022-09-29T03:05:22.153Z,1035.44
2022-09-29T03:06:21.906Z,1035.45
2022-09-29T03:07:21.866Z,1035.38
2022-09-29T03:08:21.845Z,1035.41
2022-09-29T03:09:21.865Z,1035.43
2022-09-29T03:10:21.826Z,1035.42
2022-09-29T03:11:21.813Z,1035.39
2022-09-29T03:12:21.826Z,1035.41
2022-09-29T03:13:21.826Z,1035.41
2022-09-29T03:14:21.786Z,1035.42
2022-09-29T03:15:21.766Z,1035.42
2022-09-29T03:16:21.833Z,1035.44
2022-09-29T03:17:21.756Z,1035.44
2022-09-29T03:18:21.737Z,1035.42
2022-09-29T03:19:21.734Z,1035.39
2022-09-29T03:20:21.717Z,1035.37
2022-09-29T03:21:21.698Z,1035.20
2022-09-29T03:22:21.706Z,1035.19
2022-09-29T03:23:21.678Z,1035.36
2022-09-29T03:24:21.668Z,1035.37
2022-09-29T03:25:21.660Z,1035.38
2022-09-29T03:26:21.679Z,1035.38
2022-09-29T03:27:21.640Z,1035.39
2022-09-29T03:28:21.627Z,1035.41
2022-09-29T03:29:21.628Z,1035.40
2022-09-29T03:30:21.607Z,1035.37
2022-09-29T03:31:21.646Z,1035.36
2022-09-29T03:32:21.581Z,1035.20
2022-09-29T03:33:21.579Z,1035.18
2022-09-29T03:34:21.564Z,1035.19
2022-09-29T03:35:21.548Z,1035.39
2022-09-29T03:36:21.548Z,1035.40
2022-09-29T03:37:21.538Z,1035.38
2022-09-29T03:38:21.516Z,1035.37
2022-09-29T03:39:21.640Z,1035.36
2022-09-29T03:40:21.550Z,1035.36
2022-09-29T03:41:21.509Z,1035.36
2022-09-29T03:42:21.459Z,1035.37
2022-09-29T03:43:21.479Z,1035.20
2022-09-29T03:44:21.457Z,1035.17
2022-09-29T03:45:21.497Z,1035.17
2022-09-29T03:46:21.437Z,1035.14
2022-09-29T03:47:21.429Z,1035.12
2022-09-29T03:48:23.035Z,1035.13
2022-09-29T03:49:21.518Z,1035.13
2022-09-29T03:50:21.387Z,1035.12
2022-09-29T03:51:21.393Z,1035.13
2022-09-29T03:52:21.356Z,1035.11
2022-09-29T03:53:21.657Z,1035.12
2022-09-29T03:54:21.340Z,1035.11
2022-09-29T03:55:21.321Z,1035.13
2022-09-29T03:56:21.312Z,1035.12
2022-09-29T03:57:21.310Z,1035.13
2022-09-29T03:58:21.291Z,1035.11
2022-09-29T03:59:21.270Z,1035.11
2022-09-29T04:00:21.270Z,1035.12
2022-09-29T04:01:21.359Z,1035.12
2022-09-29T04:02:21.299Z,1035.10
2022-09-29T04:03:21.240Z,1035.09
2022-09-29T04:04:21.221Z,1035.09
2022-09-29T04:05:21.202Z,1035.11
2022-09-29T04:06:21.220Z,1035.09
2022-09-29T04:07:21.197Z,1034.90
2022-09-29T04:08:21.193Z,1034.90
2022-09-29T04:09:21.168Z,1034.90
2022-09-29T04:10:21.152Z,1034.90
2022-09-29T04:11:21.141Z,1034.91
2022-09-29T04:12:21.139Z,1034.91
2022-09-29T04:13:21.111Z,1035.11
2022-09-29T04:14:21.121Z,1035.13
2022-09-29T04:15:21.102Z,1035.13
2022-09-29T04:16:21.158Z,1035.11
2022-09-29T04:17:21.091Z,1035.10
2022-09-29T04:18:21.073Z,1034.92
2022-09-29T04:19:21.138Z,1034.91
2022-09-29T04:20:21.032Z,1034.89
2022-09-29T04:21:21.055Z,1034.85
2022-09-29T04:22:21.021Z,1034.82
2022-09-29T04:23:21.003Z,1034.65
2022-09-29T04:24:21.003Z,1034.81
2022-09-29T04:25:20.994Z,1034.83
2022-09-29T04:26:20.992Z,1034.83
2022-09-29T04:27:20.966Z,1034.84
2022-09-29T04:28:20.962Z,1034.83
2022-09-29T04:29:21.040Z,1034.83
2022-09-29T04:30:20.928Z,1034.65
2022-09-29T04:31:20.983Z,1034.64
2022-09-29T04:32:20.932Z,1034.82
2022-09-29T04:33:20.893Z,1034.82
2022-09-29T04:34:20.916Z,1034.82
2022-09-29T04:35:20.873Z,1034.84
2022-09-29T04:36:20.883Z,1034.84
2022-09-29T04:37:20.848Z,1034.83
2022-09-29T04:38:20.851Z,1034.84
2022-09-29T04:39:20.924Z,1034.83
2022-09-29T04:40:20.857Z,1034.83
2022-09-29T04:41:20.863Z,1034.82
2022-09-29T04:42:20.796Z,1034.83
2022-09-29T04:43:20.774Z,1034.82
2022-09-29T04:44:20.774Z,1034.82
2022-09-29T04:45:20.764Z,1034.83
2022-09-29T04:46:20.804Z,1034.85
2022-09-29T04:47:20.741Z,1034.86
2022-09-29T04:48:20.735Z,1034.87
2022-09-29T04:49:20.862Z,1034.84
2022-09-29T04:50:20.712Z,1034.85
2022-09-29T04:51:20.695Z,1034.83
2022-09-29T04:52:20.866Z,1034.85
2022-09-29T04:53:21.748Z,1034.85
2022-09-29T04:54:20.714Z,1034.85
2022-09-29T04:55:21.248Z,1034.85
2022-09-29T04:56:20.744Z,1034.86
2022-09-29T04:57:21.176Z,1034.85
2022-09-29T04:58:21.397Z,1034.87
2022-09-29T04:59:21.600Z,1034.89
2022-09-29T05:00:21.647Z,1034.88
2022-09-29T05:01:21.053Z,1034.90
2022-09-29T05:02:21.367Z,1034.89
2022-09-29T05:03:21.051Z,1034.90
2022-09-29T05:04:20.545Z,1034.91
2022-09-29T05:05:20.846Z,1034.90
2022-09-29T05:06:20.961Z,1034.91
2022-09-29T05:07:20.601Z,1034.89
2022-09-29T05:08:21.017Z,1034.90
2022-09-29T05:09:24.628Z,1034.92
2022-09-29T05:10:21.338Z,1034.91
2022-09-29T05:11:21.304Z,1034.91
2022-09-29T05:12:20.988Z,1034.91
2022-09-29T05:13:20.489Z,1034.89
2022-09-29T05:14:20.465Z,1034.88
2022-09-29T05:15:25.730Z,1034.88
2022-09-29T05:16:22.949Z,1034.87
2022-09-29T05:17:21.380Z,1034.88
2022-09-29T05:18:21.344Z,1034.84
2022-09-29T05:19:20.770Z,1034.84
2022-09-29T05:20:20.377Z,1034.87
2022-09-29T05:21:29.449Z,1034.89
2022-09-29T05:22:21.506Z,1034.90
2022-09-29T05:23:20.871Z,1034.89
2022-09-29T05:24:20.343Z,1034.88
2022-09-29T05:25:21.325Z,1034.89
2022-09-29T05:26:20.334Z,1034.89
2022-09-29T05:27:21.569Z,1034.89
2022-09-29T05:28:21.289Z,1034.87
2022-09-29T05:29:22.759Z,1034.87
2022-09-29T05:30:22.377Z,1034.87
2022-09-29T05:31:20.338Z,1034.89
2022-09-29T05:32:21.234Z,1034.90
2022-09-29T05:33:20.749Z,1034.91
2022-09-29T05:34:21.346Z,1034.88
2022-09-29T05:35:21.206Z,1034.84
2022-09-29T05:36:20.202Z,1034.84
2022-09-29T05:37:20.219Z,1034.87
2022-09-29T05:38:21.096Z,1034.89
2022-09-29T05:39:20.384Z,1034.90
2022-09-29T05:40:20.280Z,1035.10
2022-09-29T05:41:21.586Z,1035.11
2022-09-29T05:42:21.235Z,1035.09
2022-09-29T05:43:20.206Z,1034.90
2022-09-29T05:44:20.852Z,1034.90
2022-09-29T05:45:20.772Z,1034.91
2022-09-29T05:46:20.139Z,1035.08
2022-09-29T05:47:20.093Z,1034.91
2022-09-29T05:48:20.061Z,1034.90
2022-09-29T05:49:20.140Z,1034.89
2022-09-29T05:50:21.224Z,1034.89
2022-09-29T05:51:22.777Z,1034.89
2022-09-29T05:52:20.934Z,1035.08
2022-09-29T05:53:20.039Z,1035.09
2022-09-29T05:54:20.001Z,1035.11
2022-09-29T05:55:20.438Z,1035.07
2022-09-29T05:56:20.150Z,1035.07
2022-09-29T05:57:20.952Z,1035.07
2022-09-29T05:58:20.497Z,1035.09
2022-09-29T05:59:20.548Z,1034.92
2022-09-29T06:00:20.019Z,1034.91
2022-09-29T06:01:20.786Z,1035.09
2022-09-29T06:02:19.910Z,1035.12
2022-09-29T06:03:19.880Z,1034.91
2022-09-29T06:04:19.860Z,1034.90
2022-09-29T06:05:19.849Z,1034.90
2022-09-29T06:06:19.861Z,1035.10
2022-09-29T06:07:19.841Z,1035.11
2022-09-29T06:08:19.800Z,1035.07
2022-09-29T06:09:19.890Z,1035.10
2022-09-29T06:10:19.790Z,1034.91
2022-09-29T06:11:19.821Z,1035.08
2022-09-29T06:12:21.795Z,1035.10
2022-09-29T06:13:19.772Z,1035.13
2022-09-29T06:14:19.749Z,1035.18
2022-09-29T06:15:19.734Z,1035.19
2022-09-29T06:16:19.776Z,1035.18
2022-09-29T06:17:19.711Z,1035.15
2022-09-29T06:18:19.682Z,1035.13
2022-09-29T06:19:19.769Z,1035.15
2022-09-29T06:20:19.673Z,1035.14
2022-09-29T06:21:19.692Z,1035.12
2022-09-29T06:22:19.654Z,1035.13
2022-09-29T06:23:19.653Z,1035.13
2022-09-29T06:24:19.632Z,1035.14
2022-09-29T06:25:19.613Z,1035.14
2022-09-29T06:26:23.585Z,1035.16
2022-09-29T06:27:19.602Z,1035.18
2022-09-29T06:28:19.592Z,1035.18
2022-09-29T06:29:19.627Z,1035.36
2022-09-29T06:30:19.555Z,1035.37
2022-09-29T06:31:19.623Z,1035.37
2022-09-29T06:32:19.533Z,1035.37
2022-09-29T06:33:19.521Z,1035.38
2022-09-29T06:34:19.521Z,1035.41
2022-09-29T06:35:19.493Z,1035.44
2022-09-29T06:36:19.506Z,1035.48
2022-09-29T06:37:19.480Z,1035.64
2022-09-29T06:38:19.484Z,1035.48
2022-09-29T06:39:19.616Z,1035.67
2022-09-29T06:40:19.491Z,1035.67
2022-09-29T06:41:19.504Z,1035.68
2022-09-29T06:42:19.441Z,1035.69
2022-09-29T06:43:19.404Z,1035.76
2022-09-29T06:44:19.403Z,1035.95
2022-09-29T06:45:22.163Z,1035.73
2022-09-29T06:46:19.458Z,1035.74
2022-09-29T06:47:19.364Z,1035.77
2022-09-29T06:48:19.364Z,1035.76
2022-09-29T06:49:19.470Z,1035.76
2022-09-29T06:50:20.297Z,1035.94
2022-09-29T06:51:19.968Z,1035.95
2022-09-29T06:52:21.376Z,1035.98
2022-09-29T06:53:25.136Z,1036.02
2022-09-29T06:54:20.284Z,1036.04
2022-09-29T06:55:19.276Z,1036.04
2022-09-29T06:56:19.283Z,1036.01
2022-09-29T06:57:19.248Z,1035.98
2022-09-29T06:58:19.285Z,1035.94
2022-09-29T06:59:19.419Z,1035.75
2022-09-29T07:00:19.216Z,1035.93
2022-09-29T07:01:19.280Z,1035.97
2022-09-29T07:02:19.655Z,1036.01
2022-09-29T07:03:19.197Z,1036.02
2022-09-29T07:04:19.778Z,1036.04
2022-09-29T07:05:19.166Z,1036.05
2022-09-29T07:06:20.607Z,1036.06
2022-09-29T07:07:19.424Z,1036.24
2022-09-29T07:08:19.129Z,1036.22
2022-09-29T07:09:19.210Z,1036.22
2022-09-29T07:10:19.115Z,1036.24
2022-09-29T07:11:19.126Z,1036.24
2022-09-29T07:12:19.088Z,1036.28
2022-09-29T07:13:20.387Z,1036.32
2022-09-29T07:14:19.269Z,1036.35
2022-09-29T07:15:19.127Z,1036.53
2022-09-29T07:16:19.123Z,1036.58
2022-09-29T07:17:19.157Z,1036.60
2022-09-29T07:18:19.043Z,1036.63
2022-09-29T07:19:19.132Z,1036.83
2022-09-29T07:20:19.949Z,1036.87
2022-09-29T07:21:19.021Z,1036.54
2022-09-29T07:22:18.978Z,1036.35
2022-09-29T07:23:18.968Z,1036.89
2022-09-29T07:24:18.956Z,1036.90
2022-09-29T07:25:33.944Z,1036.88
2022-09-29T07:26:19.939Z,1036.89
2022-09-29T07:27:18.929Z,1036.86
2022-09-29T07:28:18.899Z,1036.87
2022-09-29T07:29:19.054Z,1036.92
2022-09-29T07:30:19.267Z,1036.92
2022-09-29T07:31:19.043Z,1036.93
2022-09-29T07:32:27.255Z,1036.95
2022-09-29T07:33:28.883Z,1036.97
2022-09-29T07:34:19.838Z,1037.17
2022-09-29T07:35:19.139Z,1037.22
2022-09-29T07:36:18.949Z,1037.19
2022-09-29T07:37:18.809Z,1036.95
2022-09-29T07:38:18.807Z,1036.92
2022-09-29T07:39:18.876Z,1036.95
2022-09-29T07:40:18.798Z,1037.16
2022-09-29T07:41:19.020Z,1037.18
2022-09-29T07:42:18.762Z,1037.21
2022-09-29T07:43:18.802Z,1037.19
2022-09-29T07:44:19.069Z,1037.21
2022-09-29T07:45:18.734Z,1037.22
2022-09-29T07:46:18.783Z,1037.23
2022-09-29T07:47:18.698Z,1037.23
2022-09-29T07:48:18.680Z,1037.17
2022-09-29T07:49:18.684Z,1037.14
2022-09-29T07:50:19.291Z,1036.94
2022-09-29T07:51:18.642Z,1036.86
2022-09-29T07:52:18.652Z,1036.83
2022-09-29T07:53:18.611Z,1036.87
2022-09-29T07:54:18.611Z,1036.87
2022-09-29T07:55:18.642Z,1036.92
2022-09-29T07:56:18.921Z,1036.92
2022-09-29T07:57:19.012Z,1036.91
2022-09-29T07:58:18.583Z,1036.94
2022-09-29T07:59:18.701Z,1036.96
2022-09-29T08:00:19.290Z,1036.96
2022-09-29T08:01:18.662Z,1036.99
2022-09-29T08:02:18.573Z,1036.98
2022-09-29T08:03:18.539Z,1037.15
2022-09-29T08:04:18.512Z,1037.17
2022-09-29T08:05:18.492Z,1036.95
2022-09-29T08:06:18.577Z,1036.89
2022-09-29T08:07:18.463Z,1036.89
2022-09-29T08:08:18.443Z,1036.92
2022-09-29T08:09:18.744Z,1036.93
2022-09-29T08:10:18.435Z,1036.95
2022-09-29T08:11:29.222Z,1037.16
2022-09-29T08:12:19.812Z,1037.18
2022-09-29T08:13:18.561Z,1037.20
2022-09-29T08:14:18.411Z,1037.24
2022-09-29T08:15:18.372Z,1037.26
2022-09-29T08:16:18.431Z,1037.27
2022-09-29T08:17:18.942Z,1037.28
2022-09-29T08:18:18.714Z,1037.26
2022-09-29T08:19:18.760Z,1037.33
2022-09-29T08:20:18.483Z,1037.50
2022-09-29T08:21:18.322Z,1037.50
2022-09-29T08:22:18.674Z,1037.55
2022-09-29T08:23:18.880Z,1037.56
2022-09-29T08:24:18.654Z,1037.03
2022-09-29T08:25:18.244Z,1036.77
2022-09-29T08:26:19.547Z,1036.67
2022-09-29T08:27:19.454Z,1036.97
2022-09-29T08:28:28.791Z,1037.18
2022-09-29T08:29:20.223Z,1037.23
2022-09-29T08:30:18.203Z,1037.27
2022-09-29T08:31:18.232Z,1037.30
2022-09-29T08:32:18.174Z,1037.26
2022-09-29T08:33:18.156Z,1037.31
2022-09-29T08:34:18.187Z,1037.49
2022-09-29T08:35:18.136Z,1037.49
2022-09-29T08:36:18.145Z,1037.50
2022-09-29T08:37:18.114Z,1037.38
2022-09-29T08:38:18.113Z,1036.82
2022-09-29T08:39:18.086Z,1037.15
2022-09-29T08:40:18.185Z,1037.50
2022-09-29T08:41:18.107Z,1037.57
2022-09-29T08:42:18.047Z,1037.63
2022-09-29T08:43:29.417Z,1037.67
2022-09-29T08:44:34.246Z,1037.85
2022-09-29T08:45:19.015Z,1037.90
2022-09-29T08:46:31.247Z,1037.94
2022-09-29T08:47:23.864Z,1037.99
2022-09-29T08:48:23.267Z,1038.04
2022-09-29T08:49:29.242Z,1038.27
2022-09-29T08:50:18.955Z,1038.28
2022-09-29T08:51:17.967Z,1038.27
2022-09-29T08:52:17.939Z,1038.29
2022-09-29T08:53:27.749Z,1037.50
2022-09-29T08:54:27.365Z,1038.00
2022-09-29T08:55:21.955Z,1037.93
2022-09-29T08:56:17.915Z,1037.91
2022-09-29T08:57:17.869Z,1037.91
2022-09-29T08:58:17.848Z,1037.94
2022-09-29T08:59:17.849Z,1037.96
2022-09-29T09:00:17.839Z,1037.98
2022-09-29T09:01:17.943Z,1036.47
2022-09-29T09:02:17.851Z,1036.05
2022-09-29T09:03:17.809Z,1035.69
2022-09-29T09:04:17.855Z,1036.39
2022-09-29T09:05:17.798Z,1037.54
2022-09-29T09:06:17.809Z,1037.94
2022-09-29T09:07:17.757Z,1037.68
2022-09-29T09:08:17.774Z,1038.06
2022-09-29T09:09:17.783Z,1038.25
2022-09-29T09:10:18.841Z,1037.38
2022-09-29T09:11:17.730Z,1037.45
2022-09-29T09:12:17.704Z,1035.53
2022-09-29T09:13:18.070Z,1037.02
2022-09-29T09:14:17.690Z,1038.32
2022-09-29T09:15:17.660Z,1037.97
2022-09-29T09:16:17.725Z,1037.49
2022-09-29T09:17:17.641Z,1037.16
2022-09-29T09:18:17.620Z,1036.90
2022-09-29T09:19:17.767Z,1036.64
2022-09-29T09:20:17.598Z,1036.18
2022-09-29T09:21:17.592Z,1036.01
2022-09-29T09:22:17.813Z,1035.83
2022-09-29T09:23:17.570Z,1034.41
2022-09-29T09:24:21.479Z,1033.26
2022-09-29T09:25:18.541Z,1032.97
2022-09-29T09:26:17.554Z,1034.14
2022-09-29T09:27:17.533Z,1033.46
2022-09-29T09:28:17.701Z,1034.14
2022-09-29T09:29:17.485Z,1033.68
2022-09-29T09:30:17.512Z,1032.51
2022-09-29T09:31:17.785Z,1035.25
2022-09-29T09:32:17.464Z,1035.33
2022-09-29T09:33:29.169Z,1035.73
2022-09-29T09:34:19.033Z,1036.79
2022-09-29T09:35:23.209Z,1036.35
2022-09-29T09:36:29.020Z,1035.86
2022-09-29T09:37:18.413Z,1034.50
2022-09-29T09:38:17.386Z,1033.20
2022-09-29T09:39:17.387Z,1032.70
2022-09-29T09:40:17.443Z,1032.74
2022-09-29T09:41:17.372Z,1034.21
2022-09-29T09:42:17.343Z,1035.38
2022-09-29T09:43:17.363Z,1035.96
2022-09-29T09:44:17.371Z,1036.15
2022-09-29T09:45:17.352Z,1034.21
2022-09-29T09:46:17.370Z,1032.08
2022-09-29T09:47:17.294Z,1033.20
2022-09-29T09:48:22.049Z,1033.62
2022-09-29T09:49:18.263Z,1033.44
2022-09-29T09:50:17.265Z,1031.16
2022-09-29T09:51:17.254Z,1031.62
2022-09-29T09:52:17.228Z,1032.13
2022-09-29T09:53:17.215Z,1034.00
2022-09-29T09:54:17.244Z,1034.90
2022-09-29T09:55:17.195Z,1034.82
2022-09-29T09:56:17.185Z,1034.28
2022-09-29T09:57:17.168Z,1032.54
2022-09-29T09:58:17.185Z,1033.98
2022-09-29T09:59:17.214Z,1033.93
2022-09-29T10:00:17.144Z,1033.32
2022-09-29T10:01:17.221Z,1030.84
2022-09-29T10:02:17.123Z,1029.32
2022-09-29T10:03:17.096Z,1029.90
2022-09-29T10:04:17.088Z,1022.50
2022-09-29T10:05:17.076Z,1020.79
2022-09-29T10:06:17.086Z,1027.37
2022-09-29T10:07:17.047Z,1023.20
2022-09-29T10:08:17.044Z,1028.22
2022-09-29T10:09:17.165Z,1029.45
2022-09-29T10:10:17.018Z,1028.64
2022-09-29T10:11:17.028Z,1029.12
2022-09-29T10:12:16.997Z,1022.78
2022-09-29T10:13:16.977Z,1025.41
2022-09-29T10:14:16.975Z,1024.10
2022-09-29T10:15:16.956Z,1028.30
2022-09-29T10:16:17.022Z,1027.02
2022-09-29T10:17:16.929Z,1028.25
2022-09-29T10:18:16.929Z,1027.68
2022-09-29T10:19:17.018Z,1026.76
2022-09-29T10:20:16.918Z,1025.94
2022-09-29T10:21:17.159Z,1024.33
2022-09-29T10:22:16.914Z,1023.81
2022-09-29T10:23:17.172Z,1022.55
2022-09-29T10:24:16.869Z,1023.89
2022-09-29T10:25:16.843Z,1025.19
2022-09-29T10:26:16.856Z,1024.55
2022-09-29T10:27:16.819Z,1023.64
2022-09-29T10:28:16.820Z,1024.10
2022-09-29T10:29:17.070Z,1023.33
2022-09-29T10:30:16.790Z,1016.48
2022-09-29T10:31:16.849Z,1020.31
2022-09-29T10:32:16.777Z,1020.59
2022-09-29T10:33:16.760Z,1020.91
2022-09-29T10:34:16.771Z,1016.11
2022-09-29T10:35:16.740Z,1019.40
2022-09-29T10:36:16.731Z,988.67
2022-09-29T10:37:16.719Z,991.04
2022-09-29T10:38:16.699Z,1002.37
2022-09-29T10:39:16.692Z,996.10
2022-09-29T10:40:16.680Z,980.42
2022-09-29T10:41:16.681Z,985.32
2022-09-29T10:42:16.667Z,985.80
2022-09-29T10:43:16.653Z,992.33
2022-09-29T10:44:16.642Z,1002.51
2022-09-29T10:45:16.634Z,1010.83
2022-09-29T10:46:16.715Z,1002.97
2022-09-29T10:47:16.603Z,1012.16
2022-09-29T10:48:16.583Z,1011.23
2022-09-29T10:49:16.581Z,1001.30
2022-09-29T10:50:16.583Z,990.26
2022-09-29T10:51:16.564Z,997.84
2022-09-29T10:52:16.542Z,994.39
2022-09-29T10:53:16.526Z,1000.22
2022-09-29T10:54:16.592Z,996.52
2022-09-29T10:55:16.514Z,1000.61
2022-09-29T10:56:16.492Z,1003.25
2022-09-29T10:57:16.494Z,1007.72
2022-09-29T10:58:31.479Z,1011.56
2022-09-29T10:59:17.485Z,1014.81
2022-09-29T11:00:16.473Z,1017.28
2022-09-29T11:01:16.471Z,1020.75
2022-09-29T11:02:16.449Z,1025.13
2022-09-29T11:03:16.443Z,1025.00
2022-09-29T11:04:16.444Z,1028.31
2022-09-29T11:05:16.414Z,1033.71
2022-09-29T11:06:16.385Z,1033.36
2022-09-29T11:07:16.383Z,1039.37
2022-09-29T11:08:16.375Z,1037.31
2022-09-29T11:09:16.427Z,1038.61
2022-09-29T11:10:16.354Z,1042.37
2022-09-29T11:11:16.336Z,1042.37
2022-09-29T11:12:16.313Z,1041.56
2022-09-29T11:13:16.315Z,1042.53
2022-09-29T11:14:16.307Z,1040.88
2022-09-29T11:15:16.305Z,1042.52
2022-09-29T11:16:16.324Z,1042.68
2022-09-29T11:17:16.257Z,1042.84
2022-09-29T11:18:16.249Z,1038.16
2022-09-29T11:19:16.302Z,1037.00
2022-09-29T11:20:16.257Z,1035.36
2022-09-29T11:21:17.011Z,1033.91
2022-09-29T11:22:16.207Z,1036.27
2022-09-29T11:23:16.195Z,1043.00
2022-09-29T11:24:16.197Z,1026.56
2022-09-29T11:25:16.186Z,1024.21
2022-09-29T11:26:16.168Z,1032.98
2022-09-29T11:27:16.957Z,1032.65
2022-09-29T11:28:16.126Z,1036.87
2022-09-29T11:29:16.137Z,1039.08
2022-09-29T11:30:16.116Z,1036.88
2022-09-29T11:31:16.108Z,1032.13
2022-09-29T11:32:16.089Z,1033.82
2022-09-29T11:33:16.133Z,1001.90
2022-09-29T11:34:16.059Z,1001.96
2022-09-29T11:35:16.153Z,1028.36
2022-09-29T11:36:20.089Z,1027.78
2022-09-29T11:37:16.030Z,1025.92
2022-09-29T11:38:16.020Z,1010.76
2022-09-29T11:39:16.098Z,983.85
2022-09-29T11:40:16.015Z,979.22
2022-09-29T11:41:17.148Z,953.78
2022-09-29T11:42:15.960Z,946.27
2022-09-29T11:43:15.961Z,945.42
2022-09-29T11:44:15.972Z,944.70
2022-09-29T11:45:15.990Z,948.01
2022-09-29T11:46:16.083Z,976.29
2022-09-29T11:47:15.911Z,1019.54
2022-09-29T11:48:15.891Z,1018.47
2022-09-29T11:49:15.902Z,1018.04
2022-09-29T11:50:15.886Z,1015.56
2022-09-29T11:51:15.862Z,1015.91
2022-09-29T11:52:16.041Z,1014.67
2022-09-29T11:53:16.770Z,1013.31
2022-09-29T11:54:15.834Z,1014.64
2022-09-29T11:55:15.843Z,1013.74
2022-09-29T11:56:15.795Z,1015.61
2022-09-29T11:57:19.324Z,1016.22
2022-09-29T11:58:16.083Z,1017.36
2022-09-29T11:59:15.856Z,1017.40
2022-09-29T12:00:15.744Z,1016.44
2022-09-29T12:01:16.705Z,1013.66
2022-09-29T12:02:16.491Z,1003.58
2022-09-29T12:03:15.829Z,998.12
2022-09-29T12:04:15.737Z,999.17
2022-09-29T12:05:15.713Z,992.78
2022-09-29T12:06:15.698Z,987.11